createdAt,value
2023-05-13T00:00:44.913Z,99.90
2023-05-13T00:03:13.777Z,1.00
2023-05-13T00:05:42.616Z,1.00
2023-05-13T00:08:12.095Z,1.00
2023-05-13T00:10:40.805Z,1.00
2023-05-13T00:13:10.923Z,1.00
2023-05-13T00:15:40.440Z,1.00
2023-05-13T00:18:09.731Z,1.00
2023-05-13T00:20:38.472Z,1.00
2023-05-13T00:23:08.015Z,1.00
2023-05-13T00:25:36.987Z,1.00
2023-05-13T00:28:07.512Z,1.00
2023-05-13T00:30:37.713Z,1.00
2023-05-13T00:33:07.730Z,1.00
2023-05-13T00:44:34.852Z,1.00
2023-05-13T00:49:34.445Z,1.00
2023-05-13T00:52:03.649Z,1.00
2023-05-13T00:54:32.475Z,1.00
2023-05-13T00:57:01.052Z,1.00
2023-05-13T00:59:31.973Z,1.00
2023-05-13T01:02:09.837Z,1.00
2023-05-13T01:04:46.258Z,1.00
2023-05-13T01:07:25.137Z,1.00
2023-05-13T01:10:05.189Z,1.00
2023-05-13T01:12:44.824Z,1.00
2023-05-13T01:15:17.369Z,1.00
2023-05-13T01:17:55.500Z,1.00
2023-05-13T01:20:25.036Z,1.00
2023-05-13T01:22:56.744Z,1.00
2023-05-13T01:25:25.823Z,41.20
2023-05-13T01:27:54.957Z,1.00
2023-05-13T01:30:24.215Z,1.00
2023-05-13T01:32:53.962Z,1.00
2023-05-13T01:35:24.353Z,1.00
2023-05-13T01:37:54.747Z,41.10
2023-05-13T01:40:32.251Z,1.00
2023-05-13T01:43:01.934Z,1.00
2023-05-13T01:45:31.098Z,1.00
2023-05-13T01:47:59.745Z,1.30
2023-05-13T01:50:28.514Z,1.00
2023-05-13T01:52:59.121Z,20.70
2023-05-13T01:55:29.085Z,1.00
2023-05-13T01:57:57.637Z,1.00
2023-05-13T02:00:26.322Z,1.00
2023-05-13T02:02:54.847Z,1.00
2023-05-13T02:05:23.829Z,1.00
2023-05-13T02:07:52.758Z,1.00
2023-05-13T02:10:23.460Z,1.00
2023-05-13T02:12:52.223Z,1.00
2023-05-13T02:15:20.977Z,1.00
2023-05-13T02:17:49.608Z,1.00
2023-05-13T02:20:18.577Z,1.00
2023-05-13T02:22:47.132Z,1.00
2023-05-13T02:25:15.712Z,1.00
2023-05-13T02:27:45.790Z,1.00
2023-05-13T02:30:14.956Z,1.00
2023-05-13T02:32:44.273Z,1.00
2023-05-13T02:35:12.855Z,1.00
2023-05-13T02:37:41.455Z,1.00
2023-05-13T02:40:11.666Z,1.00
2023-05-13T02:42:40.128Z,1.00
2023-05-13T02:45:11.846Z,1.00
2023-05-13T02:47:40.646Z,1.00
2023-05-13T02:50:10.337Z,1.00
2023-05-13T02:52:39.423Z,1.00
2023-05-13T02:55:09.974Z,1.00
2023-05-13T02:57:39.229Z,1.00
2023-05-13T03:00:11.336Z,1.00
2023-05-13T03:02:40.251Z,1.00
2023-05-13T03:05:10.179Z,1.00
2023-05-13T03:07:39.374Z,1.00
2023-05-13T03:10:09.269Z,1.00
2023-05-13T03:12:37.897Z,1.00
2023-05-13T03:15:08.274Z,1.00
2023-05-13T03:17:38.631Z,1.00
2023-05-13T03:20:08.597Z,1.00
2023-05-13T03:22:38.818Z,1.00
2023-05-13T03:25:08.125Z,1.00
2023-05-13T03:27:36.705Z,1.00
2023-05-13T03:30:05.886Z,1.00
2023-05-13T03:32:34.904Z,1.00
2023-05-13T03:35:05.129Z,1.00
2023-05-13T03:37:33.702Z,1.00
2023-05-13T03:40:02.341Z,1.00
2023-05-13T03:42:31.158Z,1.00
2023-05-13T03:44:59.755Z,1.00
2023-05-13T03:47:28.491Z,1.00
2023-05-13T03:49:57.476Z,1.00
2023-05-13T03:52:27.541Z,1.00
2023-05-13T03:54:56.118Z,1.00
2023-05-13T03:57:24.854Z,1.00
2023-05-13T03:59:53.304Z,1.00
2023-05-13T04:02:22.808Z,1.00
2023-05-13T04:04:51.810Z,1.00
2023-05-13T04:07:20.430Z,1.00
2023-05-13T04:09:50.664Z,1.00
2023-05-13T04:12:19.438Z,1.00
2023-05-13T04:14:48.018Z,1.00
2023-05-13T04:17:16.563Z,1.00
2023-05-13T04:19:46.632Z,1.00
2023-05-13T04:22:15.088Z,99.90
2023-05-13T04:24:43.720Z,99.90
2023-05-13T04:27:18.776Z,99.90
2023-05-13T04:29:47.383Z,99.90
2023-05-13T04:32:22.233Z,99.90
2023-05-13T04:34:50.999Z,99.90
2023-05-13T04:37:20.101Z,99.90
2023-05-13T04:39:49.062Z,98.40
2023-05-13T04:42:19.240Z,28.90
2023-05-13T04:44:47.716Z,1.00
2023-05-13T04:47:16.711Z,1.00
2023-05-13T04:49:45.478Z,1.00
2023-05-13T04:52:14.540Z,1.00
2023-05-13T04:54:43.351Z,1.00
2023-05-13T04:57:11.958Z,1.00
2023-05-13T04:59:42.109Z,1.00
2023-05-13T05:02:10.826Z,1.00
2023-05-13T05:04:39.666Z,1.00
2023-05-13T05:07:08.484Z,1.00
2023-05-13T05:09:37.132Z,1.00
2023-05-13T05:12:06.260Z,1.00
2023-05-13T05:14:34.837Z,1.00
2023-05-13T05:17:06.013Z,1.00
2023-05-13T05:19:34.479Z,1.00
2023-05-13T05:24:32.526Z,1.00
2023-05-13T05:27:01.096Z,1.00
2023-05-13T05:29:29.639Z,1.00
2023-05-13T05:31:59.813Z,1.00
2023-05-13T05:34:29.831Z,1.00
2023-05-13T05:36:58.557Z,1.00
2023-05-13T05:39:27.200Z,1.00
2023-05-13T05:41:55.816Z,1.00
2023-05-13T05:44:24.343Z,1.00
2023-05-13T05:46:54.104Z,1.00
2023-05-13T05:49:22.729Z,1.00
2023-05-13T05:51:52.975Z,1.00
2023-05-13T05:54:21.590Z,1.00
2023-05-13T05:56:50.129Z,1.00
2023-05-13T05:59:18.759Z,1.00
2023-05-13T06:01:47.465Z,1.00
2023-05-13T06:04:17.506Z,1.00
2023-05-13T06:06:46.397Z,1.00
2023-05-13T06:09:17.168Z,1.00
2023-05-13T06:11:45.788Z,1.00
2023-05-13T06:14:14.553Z,1.00
2023-05-13T06:16:43.241Z,1.00
2023-05-13T06:19:12.010Z,1.00
2023-05-13T06:21:43.286Z,1.00
2023-05-13T06:24:11.862Z,1.00
2023-05-13T06:26:42.016Z,1.00
2023-05-13T06:29:11.272Z,1.00
2023-05-13T06:31:40.003Z,1.00
2023-05-13T06:36:37.544Z,1.00
2023-05-13T06:39:06.509Z,1.00
2023-05-13T06:41:35.264Z,1.00
2023-05-13T06:44:05.506Z,1.00
2023-05-13T06:46:35.126Z,1.00
2023-05-13T06:49:03.800Z,1.00
2023-05-13T06:51:34.168Z,1.00
2023-05-13T06:54:04.152Z,1.00
2023-05-13T06:56:32.839Z,1.00
2023-05-13T06:59:02.300Z,1.00
2023-05-13T07:01:32.629Z,1.00
2023-05-13T07:04:01.972Z,1.00
2023-05-13T07:06:30.846Z,1.00
2023-05-13T07:08:59.850Z,1.00
2023-05-13T07:11:29.238Z,1.00
2023-05-13T07:13:58.244Z,1.00
2023-05-13T07:16:26.845Z,1.00
2023-05-13T07:18:57.062Z,1.00
2023-05-13T07:21:25.848Z,1.00
2023-05-13T07:23:54.901Z,1.00
2023-05-13T07:26:23.836Z,1.00
2023-05-13T07:28:52.554Z,1.00
2023-05-13T07:31:21.284Z,1.00
2023-05-13T07:33:50.845Z,1.00
2023-05-13T07:36:20.842Z,1.00
2023-05-13T07:38:49.414Z,1.00
2023-05-13T07:41:17.936Z,1.00
2023-05-13T07:43:46.591Z,1.00
2023-05-13T07:46:15.201Z,1.00
2023-05-13T07:48:44.632Z,1.00
2023-05-13T07:51:13.452Z,1.00
2023-05-13T07:53:43.729Z,1.00
2023-05-13T07:58:41.233Z,1.00
2023-05-13T08:01:10.036Z,1.00
2023-05-13T08:03:39.143Z,1.00
2023-05-13T08:06:08.129Z,1.00
2023-05-13T08:08:37.187Z,1.00
2023-05-13T08:11:09.574Z,1.00
2023-05-13T08:13:38.698Z,1.00
2023-05-13T08:16:08.387Z,1.00
2023-05-13T08:18:37.543Z,1.00
2023-05-13T08:21:06.624Z,1.00
2023-05-13T08:23:44.718Z,1.00
2023-05-13T08:26:16.841Z,1.00
2023-05-13T08:28:48.519Z,1.00
2023-05-13T08:31:19.142Z,1.00
2023-05-13T08:33:48.830Z,1.00
2023-05-13T08:36:18.114Z,1.00
